Charleston Air Force Base-International Airport
KCHS : now visible

Airfield :











YOU CAN JOIN US ON...

 
LOGIN :

Register | Disclaimer

   EN    FR    IT 

 









Legend :    VFR   Marginal VFR   IFR   Intensive IFR   Very Intensive IFR
Visi :
Ceiling :
>= 8 km
>= 3000ft
5 to 8 km
1000 to 3000 ft
1500m to 5 km
500 to 1000 ft
800 to 1500m
200 to 500 ft
< 800m
< 200 ft
Symbols :   Thunderstorms  Fog  Heavy snow  Heavy precipitations  Wind > 20 kt






- Airport Elevation : 46 ft
- IATA code : CHS


KCHS - Charleston Air Force Base-International

CURRENT METAR :
  • 162256Z 36007KT 10SM FEW020 SCT070 BKN200 26/23 A2988 RMK AO2 RAE18 SLP116 P0002 T02560228

EXPIRED METARs :
  • 162156Z 01008KT 7SM R15/4000VP6000FT -RA SCT030 BKN045 OVC070 25/23 A2988 RMK AO2 LTG DSNT SE AND S RAB40 SLP116 CB DSNT SE AND S P0001 T02500233
  • 162056Z 01008KT 10SM SCT025 SCT035 BKN200 29/22 A2986 RMK AO2 LTG DSNT SE AND SW SLP109 CB DSNT SE AND SW T02940222 55000

TAF KCHS
Valid from the 16 at 18:00 until the 17 at 18:00 UTC


161738Z 1618/1718 32008KT P6SM VCSH SCT035 BKN080
TEMPO 1619/1623 3SM TSRA SCT025 BKN035CB
FM170000 03005KT P6SM FEW015 BKN060
KZJX FIR / North America



MET'MAP, your aeronautical weather chart ! - Copyright ORBIFLY December 2007 - Disclaimer

ORBIFLY MET'MAP TEAM :

Programming & Development : Alexandra Zaïnal
Original concept : Baudouin d'Aumeries
Technical & hardware support : Manuel Goepfert
Assistance : Marc-Olivier Méhu




SOURCES & CREDITS :

   NOAA       Earth
Advisory